Time,TemperatureF,DewpointF,PressureIn,WindDirection,WindDirectionDegrees,WindSpeedMPH,WindSpeedGustMPH,Humidity,HourlyPrecipIn,Conditions,Clouds,dailyrainin,SoftwareType,DateUTC
2013-01-18 00:02:00,30.6,15.1,30.26,ENE,68,0.4,0.4,52,0.00,,---,0.00,VWS V14.01,2013-01-18 07:02:00,
2013-01-18 00:07:00,30.4,14.9,30.26,ENE,68,2.0,2.0,52,0.00,,---,0.01,VWS V14.01,2013-01-18 07:07:00,
2013-01-18 00:12:00,30.2,14.7,30.26,ENE,68,0.4,0.4,52,0.00,,---,0.00,VWS V14.01,2013-01-18 07:12:00,
2013-01-18 00:17:00,29.5,14.1,30.26,ENE,68,0.2,0.2,52,0.00,,---,0.00,VWS V14.01,2013-01-18 07:17:00,
2013-01-18 00:22:00,29.2,14.2,30.26,ENE,68,0.7,0.7,53,0.00,,---,0.00,VWS V14.01,2013-01-18 07:22:00,
2013-01-18 00:27:00,29.2,15.1,30.26,ENE,68,1.8,1.8,55,0.00,,---,0.00,VWS V14.01,2013-01-18 07:27:00,
2013-01-18 00:32:00,29.2,15.1,30.25,ENE,68,1.1,1.1,55,0.00,,---,0.00,VWS V14.01,2013-01-18 07:32:00,
2013-01-18 00:37:00,29.3,15.1,30.25,ENE,68,1.8,1.8,55,0.00,,---,0.00,VWS V14.01,2013-01-18 07:37:00,
2013-01-18 00:42:00,29.2,14.6,30.25,ENE,68,0.7,0.7,54,0.00,,---,0.00,VWS V14.01,2013-01-18 07:42:00,
2013-01-18 00:47:00,29.0,14.9,30.25,NE,45,1.6,1.6,55,0.00,,---,0.00,VWS V14.01,2013-01-18 07:47:00,
2013-01-18 00:52:00,28.8,15.5,30.25,ENE,68,1.3,1.3,57,0.00,,---,0.00,VWS V14.01,2013-01-18 07:52:00,
2013-01-18 00:57:00,29.2,15.9,30.26,ENE,68,0.2,0.2,57,0.00,,---,0.00,VWS V14.01,2013-01-18 07:57:00,
2013-01-18 01:02:00,29.0,15.3,30.25,ENE,68,0.0,0.0,56,0.00,,---,0.00,VWS V14.01,2013-01-18 08:02:00,
2013-01-18 01:07:00,28.4,15.5,30.25,ENE,68,1.8,1.8,58,0.00,,---,0.00,VWS V14.01,2013-01-18 08:07:00,
2013-01-18 01:12:00,27.9,14.2,30.25,SSW,202,0.0,0.0,56,0.00,,---,0.00,VWS V14.01,2013-01-18 08:12:00,
2013-01-18 01:17:00,27.7,14.5,30.25,East,90,0.0,0.0,57,0.00,,---,0.00,VWS V14.01,2013-01-18 08:17:00,
2013-01-18 01:22:00,27.4,14.2,30.25,ENE,68,0.2,0.2,57,0.00,,---,0.00,VWS V14.01,2013-01-18 08:22:00,
2013-01-18 01:27:00,27.0,15.0,30.25,ENE,68,1.1,1.1,60,0.00,,---,0.00,VWS V14.01,2013-01-18 08:27:00,
2013-01-18 01:32:00,27.0,14.2,30.25,East,90,0.0,0.0,58,0.00,,---,0.00,VWS V14.01,2013-01-18 08:32:00,
2013-01-18 01:37:00,26.5,13.7,30.25,East,90,0.0,0.0,58,0.00,,---,0.00,VWS V14.01,2013-01-18 08:37:00,
2013-01-18 01:42:00,26.1,13.4,30.25,East,90,0.0,0.0,58,0.00,,---,0.00,VWS V14.01,2013-01-18 08:42:00,
2013-01-18 01:47:00,26.5,15.6,30.26,ENE,68,1.1,1.1,63,0.00,,---,0.00,VWS V14.01,2013-01-18 08:47:00,
2013-01-18 01:52:00,26.6,15.0,30.26,SSW,202,0.2,0.2,61,0.00,,---,0.00,VWS V14.01,2013-01-18 08:52:00,
2013-01-18 01:57:00,26.3,14.3,30.26,SSW,202,0.0,0.0,60,0.00,,---,0.00,VWS V14.01,2013-01-18 08:57:00,
2013-01-18 02:02:00,26.6,15.4,30.26,ENE,68,0.4,0.4,62,0.00,,---,0.01,VWS V14.01,2013-01-18 09:02:00,
2013-01-18 02:07:00,27.0,15.4,30.25,NE,45,1.1,1.1,61,0.00,,---,0.00,VWS V14.01,2013-01-18 09:07:00,
2013-01-18 02:12:00,27.0,15.4,30.25,NE,45,0.0,0.0,61,0.00,,---,0.00,VWS V14.01,2013-01-18 09:12:00,
2013-01-18 02:17:00,26.8,14.8,30.25,NE,45,0.0,0.0,60,0.00,,---,0.00,VWS V14.01,2013-01-18 09:17:00,
2013-01-18 02:22:00,26.8,15.2,30.25,ENE,68,0.0,0.0,61,0.00,,---,0.00,VWS V14.01,2013-01-18 09:22:00,
2013-01-18 02:27:00,26.8,15.5,30.25,NE,45,0.2,0.2,62,0.00,,---,0.00,VWS V14.01,2013-01-18 09:27:00,
2013-01-18 02:32:00,26.5,14.9,30.25,NE,45,0.2,0.2,61,0.00,,---,0.00,VWS V14.01,2013-01-18 09:32:00,
2013-01-18 02:37:00,26.3,15.1,30.25,ENE,68,0.4,0.4,62,0.00,,---,0.00,VWS V14.01,2013-01-18 09:37:00,
2013-01-18 02:42:00,26.6,15.4,30.25,ENE,68,0.0,0.0,62,0.00,,---,0.00,VWS V14.01,2013-01-18 09:42:00,
2013-01-18 02:47:00,27.0,15.7,30.25,ENE,68,0.0,0.0,62,0.00,,---,0.00,VWS V14.01,2013-01-18 09:47:00,
2013-01-18 02:52:00,26.6,15.4,30.25,ENE,68,0.0,0.0,62,0.00,,---,0.00,VWS V14.01,2013-01-18 09:52:00,
2013-01-18 02:57:00,26.8,15.5,30.24,ENE,68,0.0,0.0,62,0.00,,---,0.00,VWS V14.01,2013-01-18 09:57:00,
2013-01-18 03:02:00,26.8,15.2,30.24,ENE,68,0.0,0.0,61,0.00,,---,0.00,VWS V14.01,2013-01-18 10:02:00,
2013-01-18 03:07:00,26.6,15.4,30.24,SE,135,0.0,0.0,62,0.00,,---,0.00,VWS V14.01,2013-01-18 10:07:00,
2013-01-18 03:12:00,26.6,15.4,30.24,SE,135,0.2,0.2,62,0.00,,---,0.00,VWS V14.01,2013-01-18 10:12:00,
2013-01-18 03:17:00,27.4,16.1,30.24,ESE,112,0.0,0.0,62,0.00,,---,0.00,VWS V14.01,2013-01-18 10:17:00,
2013-01-18 03:22:00,27.0,15.7,30.24,SSE,158,0.2,0.2,62,0.00,,---,0.00,VWS V14.01,2013-01-18 10:22:00,
2013-01-18 03:27:00,27.4,16.1,30.23,ESE,112,0.2,0.2,62,0.00,,---,0.00,VWS V14.01,2013-01-18 10:27:00,
2013-01-18 03:32:00,27.7,16.0,30.24,East,90,0.0,0.0,61,0.00,,---,0.00,VWS V14.01,2013-01-18 10:32:00,
2013-01-18 03:37:00,29.2,17.1,30.23,ENE,68,3.4,3.4,60,0.00,,---,0.00,VWS V14.01,2013-01-18 10:37:00,
2013-01-18 03:42:00,29.5,15.3,30.23,South,180,0.0,0.4,55,0.00,,---,0.00,VWS V14.01,2013-01-18 10:42:00,
2013-01-18 03:47:00,29.0,16.9,30.23,ENE,68,1.6,1.6,60,0.00,,---,0.00,VWS V14.01,2013-01-18 10:47:00,
2013-01-18 03:52:00,29.2,15.5,30.23,South,180,0.0,0.0,56,0.00,,---,0.00,VWS V14.01,2013-01-18 10:52:00,
2013-01-18 03:57:00,28.8,15.9,30.23,East,90,0.0,0.0,58,0.00,,---,0.00,VWS V14.01,2013-01-18 10:57:00,
2013-01-18 04:02:00,28.3,15.4,30.23,SSE,158,0.0,0.0,58,0.00,,---,0.00,VWS V14.01,2013-01-18 11:02:00,
2013-01-18 04:07:00,27.7,15.6,30.23,SSW,202,0.2,0.2,60,0.00,,---,0.00,VWS V14.01,2013-01-18 11:07:00,
2013-01-18 04:12:00,27.2,14.8,30.22,SSW,202,0.0,0.0,59,0.00,,---,0.00,VWS V14.01,2013-01-18 11:12:00,
2013-01-18 04:17:00,26.8,15.2,30.23,SSW,202,0.0,0.0,61,0.00,,---,0.00,VWS V14.01,2013-01-18 11:17:00,
2013-01-18 04:22:00,26.6,15.4,30.22,ESE,112,0.2,0.2,62,0.00,,---,0.00,VWS V14.01,2013-01-18 11:22:00,
2013-01-18 04:27:00,26.6,15.4,30.22,South,180,0.0,0.0,62,0.00,,---,0.00,VWS V14.01,2013-01-18 11:27:00,
2013-01-18 04:32:00,26.3,15.1,30.22,South,180,0.0,0.0,62,0.00,,---,0.00,VWS V14.01,2013-01-18 11:32:00,
2013-01-18 04:37:00,26.1,15.6,30.22,South,180,0.0,0.0,64,0.00,,---,0.00,VWS V14.01,2013-01-18 11:37:00,
2013-01-18 04:42:00,26.1,15.6,30.22,SSE,158,0.0,0.0,64,0.00,,---,0.00,VWS V14.01,2013-01-18 11:42:00,
2013-01-18 04:47:00,26.1,16.0,30.22,SE,135,0.0,0.0,65,0.00,,---,0.00,VWS V14.01,2013-01-18 11:47:00,
2013-01-18 04:52:00,25.6,14.4,30.23,SE,135,0.0,0.0,62,0.00,,---,0.00,VWS V14.01,2013-01-18 11:52:00,
2013-01-18 04:57:00,24.8,13.6,30.22,SE,135,0.0,0.0,62,0.00,,---,0.00,VWS V14.01,2013-01-18 11:57:00,
2013-01-18 05:02:00,24.8,15.8,30.22,SE,135,0.0,0.0,68,0.00,,---,0.00,VWS V14.01,2013-01-18 12:02:00,
2013-01-18 05:07:00,25.0,14.6,30.22,SE,135,0.0,0.0,64,0.00,,---,0.00,VWS V14.01,2013-01-18 12:07:00,
2013-01-18 05:12:00,24.5,14.1,30.22,SE,135,0.0,0.0,64,0.00,,---,0.00,VWS V14.01,2013-01-18 12:12:00,
2013-01-18 05:17:00,24.3,13.5,30.22,SE,135,0.2,0.2,63,0.00,,---,0.00,VWS V14.01,2013-01-18 12:17:00,
2013-01-18 05:22:00,24.1,14.1,30.22,SE,135,0.0,0.0,65,0.00,,---,0.00,VWS V14.01,2013-01-18 12:22:00,
2013-01-18 05:27:00,23.9,14.2,30.22,SE,135,0.0,0.0,66,0.00,,---,0.00,VWS V14.01,2013-01-18 12:27:00,
2013-01-18 05:32:00,23.8,14.8,30.22,SE,135,0.0,0.0,68,0.00,,---,0.00,VWS V14.01,2013-01-18 12:32:00,
2013-01-18 05:37:00,23.6,14.9,30.22,SE,135,0.0,0.0,69,0.00,,---,0.00,VWS V14.01,2013-01-18 12:37:00,
2013-01-18 05:42:00,23.9,15.2,30.22,SE,135,0.0,0.0,69,0.00,,---,0.00,VWS V14.01,2013-01-18 12:42:00,
2013-01-18 05:47:00,24.3,16.6,30.22,SE,135,0.0,0.0,72,0.00,,---,0.00,VWS V14.01,2013-01-18 12:47:00,
2013-01-18 05:52:00,24.8,16.8,30.22,SE,135,0.2,0.2,71,0.00,,---,0.00,VWS V14.01,2013-01-18 12:52:00,
2013-01-18 05:57:00,25.2,17.5,30.23,East,90,0.9,0.9,72,0.00,,---,0.00,VWS V14.01,2013-01-18 12:57:00,
2013-01-18 06:02:00,25.6,17.2,30.22,East,90,1.1,1.1,70,0.00,,---,0.00,VWS V14.01,2013-01-18 13:02:00,
2013-01-18 06:07:00,25.0,15.9,30.22,East,90,0.0,0.0,68,0.00,,---,0.00,VWS V14.01,2013-01-18 13:07:00,
2013-01-18 06:12:00,24.8,16.1,30.22,East,90,0.0,0.0,69,0.00,,---,0.00,VWS V14.01,2013-01-18 13:12:00,
2013-01-18 06:17:00,24.5,16.1,30.22,East,90,0.0,0.0,70,0.00,,---,0.00,VWS V14.01,2013-01-18 13:17:00,
2013-01-18 06:22:00,24.3,16.3,30.22,East,90,0.0,0.0,71,0.00,,---,0.00,VWS V14.01,2013-01-18 13:22:00,
2013-01-18 06:27:00,24.3,15.9,30.22,East,90,0.0,0.0,70,0.00,,---,0.00,VWS V14.01,2013-01-18 13:27:00,
2013-01-18 06:32:00,24.1,17.0,30.22,East,90,0.0,0.0,74,0.00,,---,0.00,VWS V14.01,2013-01-18 13:32:00,
2013-01-18 06:37:00,23.9,15.9,30.22,East,90,0.0,0.0,71,0.00,,---,0.00,VWS V14.01,2013-01-18 13:37:00,
2013-01-18 06:42:00,23.8,16.7,30.22,East,90,0.2,0.2,74,0.00,,---,0.00,VWS V14.01,2013-01-18 13:42:00,
2013-01-18 06:47:00,23.9,16.8,30.22,East,90,0.2,0.2,74,0.00,,---,0.00,VWS V14.01,2013-01-18 13:47:00,
2013-01-18 06:52:00,23.8,16.4,30.23,East,90,0.0,0.0,73,0.00,,---,0.00,VWS V14.01,2013-01-18 13:52:00,
2013-01-18 06:57:00,23.9,17.1,30.23,East,90,0.0,0.0,75,0.00,,---,0.00,VWS V14.01,2013-01-18 13:57:00,
2013-01-18 07:02:00,23.4,15.7,30.23,ESE,112,0.0,0.0,72,0.00,,---,0.00,VWS V14.01,2013-01-18 14:02:00,
2013-01-18 07:07:00,23.2,15.5,30.23,ESE,112,0.0,0.0,72,0.00,,---,0.00,VWS V14.01,2013-01-18 14:07:00,
2013-01-18 07:12:00,22.9,14.9,30.23,ESE,112,0.0,0.0,71,0.00,,---,0.00,VWS V14.01,2013-01-18 14:12:00,
2013-01-18 07:17:00,22.5,15.2,30.23,ESE,112,0.0,0.0,73,0.00,,---,0.00,VWS V14.01,2013-01-18 14:17:00,
2013-01-18 07:22:00,23.0,16.9,30.23,ESE,112,0.0,0.0,77,0.00,,---,0.00,VWS V14.01,2013-01-18 14:22:00,
2013-01-18 07:27:00,23.2,16.8,30.23,ESE,112,0.0,0.0,76,0.00,,---,0.00,VWS V14.01,2013-01-18 14:27:00,
2013-01-18 07:32:00,23.4,17.6,30.23,East,90,0.4,0.4,78,0.00,,---,0.00,VWS V14.01,2013-01-18 14:32:00,
2013-01-18 07:37:00,23.6,17.5,30.23,East,90,0.0,0.0,77,0.00,,---,0.00,VWS V14.01,2013-01-18 14:37:00,
2013-01-18 07:42:00,24.1,17.3,30.23,East,90,0.0,0.0,75,0.00,,---,0.00,VWS V14.01,2013-01-18 14:42:00,
2013-01-18 07:47:00,26.3,18.8,30.23,East,90,0.0,0.0,73,0.00,,---,0.00,VWS V14.01,2013-01-18 14:47:00,
2013-01-18 07:52:00,27.5,19.7,30.23,East,90,0.0,0.0,72,0.00,,---,0.00,VWS V14.01,2013-01-18 14:52:00,
2013-01-18 07:57:00,29.7,21.1,30.23,ESE,112,0.0,0.0,70,0.00,,---,0.00,VWS V14.01,2013-01-18 14:57:00,
2013-01-18 08:02:00,32.8,22.7,30.23,ESE,112,0.0,0.0,66,0.00,,---,0.00,VWS V14.01,2013-01-18 15:02:00,
2013-01-18 08:07:00,33.1,21.5,30.23,ESE,112,0.0,0.0,62,0.00,,---,0.00,VWS V14.01,2013-01-18 15:07:00,
2013-01-18 08:12:00,33.5,19.5,30.24,ESE,112,0.0,0.0,56,0.00,,---,0.00,VWS V14.01,2013-01-18 15:12:00,
2013-01-18 08:17:00,33.3,18.0,30.24,ESE,112,0.2,0.2,53,0.00,,---,0.00,VWS V14.01,2013-01-18 15:17:00,
2013-01-18 08:22:00,32.8,17.6,30.24,SSW,202,0.0,0.0,53,0.00,,---,0.00,VWS V14.01,2013-01-18 15:22:00,
2013-01-18 08:27:00,33.5,19.5,30.24,SSW,202,0.0,0.0,56,0.00,,---,0.00,VWS V14.01,2013-01-18 15:27:00,
2013-01-18 08:32:00,34.0,17.8,30.24,SSW,202,0.4,0.4,51,0.00,,---,0.00,VWS V14.01,2013-01-18 15:32:00,
2013-01-18 08:37:00,33.1,17.0,30.25,SSW,202,0.4,0.4,51,0.00,,---,0.00,VWS V14.01,2013-01-18 15:37:00,
2013-01-18 08:42:00,33.5,17.3,30.25,SSW,202,0.0,0.0,51,0.00,,---,0.00,VWS V14.01,2013-01-18 15:42:00,
2013-01-18 08:47:00,34.2,18.4,30.25,SSW,202,0.0,0.0,52,0.00,,---,0.00,VWS V14.01,2013-01-18 15:47:00,
2013-01-18 08:52:00,35.3,19.0,30.25,SW,225,0.7,0.7,51,0.00,,---,0.00,VWS V14.01,2013-01-18 15:52:00,
2013-01-18 08:56:00,34.6,17.4,30.25,West,270,0.2,0.2,49,0.00,,---,0.00,VWS V14.01,2013-01-18 15:56:00,
2013-01-18 09:01:00,33.1,16.5,30.25,West,270,0.2,0.4,50,0.00,,---,0.00,VWS V14.01,2013-01-18 16:01:00,
2013-01-18 09:06:00,32.9,16.8,30.26,WSW,248,0.2,0.2,51,0.00,,---,0.00,VWS V14.01,2013-01-18 16:06:00,
2013-01-18 09:11:00,33.3,17.1,30.26,SW,225,0.2,0.2,51,0.00,,---,0.00,VWS V14.01,2013-01-18 16:11:00,
2013-01-18 09:16:00,33.5,17.3,30.26,SSW,202,0.4,0.4,51,0.00,,---,0.00,VWS V14.01,2013-01-18 16:16:00,
2013-01-18 09:21:00,34.4,17.2,30.26,SW,225,0.4,0.4,49,0.00,,---,0.00,VWS V14.01,2013-01-18 16:21:00,
2013-01-18 09:26:00,35.1,17.4,30.26,SSW,202,1.8,1.8,48,0.00,,---,0.00,VWS V14.01,2013-01-18 16:26:00,
2013-01-18 09:31:00,35.1,16.9,30.26,SW,225,0.4,0.4,47,0.00,,---,0.00,VWS V14.01,2013-01-18 16:31:00,
2013-01-18 09:36:00,35.6,17.9,30.26,SW,225,0.4,0.4,48,0.00,,---,0.00,VWS V14.01,2013-01-18 16:36:00,
2013-01-18 09:41:00,37.3,17.9,30.26,SSW,202,0.4,0.4,45,0.00,,---,0.00,VWS V14.01,2013-01-18 16:41:00,
2013-01-18 09:46:00,38.7,18.1,30.26,SW,225,1.1,1.1,43,0.00,,---,0.00,VWS V14.01,2013-01-18 16:46:00,
2013-01-18 09:51:00,39.2,17.5,30.26,SW,225,1.3,1.3,41,0.00,,---,0.00,VWS V14.01,2013-01-18 16:51:00,
2013-01-18 09:56:00,40.0,19.3,30.27,WNW,292,1.1,1.1,43,0.00,,---,0.00,VWS V14.01,2013-01-18 16:56:00,
2013-01-18 10:01:00,40.0,18.8,30.26,West,270,0.2,0.2,42,0.00,,---,0.00,VWS V14.01,2013-01-18 17:01:00,
2013-01-18 10:06:00,40.0,18.8,30.26,WSW,248,0.7,0.7,42,0.00,,---,0.00,VWS V14.01,2013-01-18 17:06:00,
2013-01-18 10:11:00,40.1,17.7,30.26,South,180,0.4,0.4,40,0.00,,---,0.00,VWS V14.01,2013-01-18 17:11:00,
2013-01-18 10:16:00,40.3,19.0,30.26,North,0,0.2,0.2,42,0.00,,---,0.00,VWS V14.01,2013-01-18 17:16:00,
2013-01-18 10:21:00,40.7,17.7,30.26,SW,225,0.7,0.7,39,0.00,,---,0.00,VWS V14.01,2013-01-18 17:21:00,
2013-01-18 10:26:00,40.7,17.7,30.26,WSW,248,2.0,2.0,39,0.00,,---,0.00,VWS V14.01,2013-01-18 17:26:00,
2013-01-18 10:31:00,40.3,17.3,30.25,SW,225,1.1,1.1,39,0.00,,---,0.00,VWS V14.01,2013-01-18 17:31:00,
2013-01-18 10:36:00,39.6,17.3,30.25,SW,225,1.1,1.1,40,0.00,,---,0.00,VWS V14.01,2013-01-18 17:36:00,
2013-01-18 10:41:00,39.6,17.3,30.25,SSW,202,1.1,1.1,40,0.00,,---,0.00,VWS V14.01,2013-01-18 17:41:00,
2013-01-18 10:46:00,39.6,17.3,30.25,SSW,202,0.4,0.4,40,0.00,,---,0.00,VWS V14.01,2013-01-18 17:46:00,
2013-01-18 10:51:00,40.0,18.2,30.25,West,270,0.0,0.0,41,0.00,,---,0.00,VWS V14.01,2013-01-18 17:51:00,
2013-01-18 10:56:00,40.1,17.7,30.24,SW,225,1.1,1.1,40,0.00,,---,0.00,VWS V14.01,2013-01-18 17:56:00,
2013-01-18 11:01:00,40.5,18.1,30.24,West,270,0.7,0.7,40,0.00,,---,0.00,VWS V14.01,2013-01-18 18:01:00,
2013-01-18 11:06:00,41.4,18.3,30.24,SSE,158,1.1,1.1,39,0.00,,---,0.00,VWS V14.01,2013-01-18 18:06:00,
2013-01-18 11:11:00,42.1,17.7,30.23,WSW,248,2.5,2.5,37,0.00,,---,0.00,VWS V14.01,2013-01-18 18:11:00,
2013-01-18 11:16:00,41.2,17.5,30.23,SW,225,1.1,1.1,38,0.00,,---,0.00,VWS V14.01,2013-01-18 18:16:00,
2013-01-18 11:21:00,41.8,18.1,30.23,SSW,202,1.6,1.6,38,0.00,,---,0.00,VWS V14.01,2013-01-18 18:21:00,
2013-01-18 11:26:00,41.9,18.2,30.23,West,270,2.0,2.0,38,0.00,,---,0.00,VWS V14.01,2013-01-18 18:26:00,
2013-01-18 11:31:00,42.5,18.1,30.23,SSE,158,0.2,0.2,37,0.00,,---,0.00,VWS V14.01,2013-01-18 18:31:00,
2013-01-18 11:36:00,43.0,18.5,30.22,SSW,202,0.0,0.0,37,0.00,,---,0.00,VWS V14.01,2013-01-18 18:36:00,
2013-01-18 11:41:00,43.9,18.0,30.22,SW,225,0.9,0.9,35,0.00,,---,0.00,VWS V14.01,2013-01-18 18:41:00,
2013-01-18 11:46:00,43.7,17.9,30.21,SW,225,1.8,1.8,35,0.00,,---,0.00,VWS V14.01,2013-01-18 18:46:00,
2013-01-18 11:51:00,44.3,18.4,30.21,SSW,202,0.2,0.2,35,0.00,,---,0.00,VWS V14.01,2013-01-18 18:51:00,
2013-01-18 11:56:00,44.6,17.3,30.21,WSW,248,1.8,1.8,33,0.00,,---,0.00,VWS V14.01,2013-01-18 18:56:00,
2013-01-18 12:01:00,44.3,17.7,30.21,West,270,1.1,1.1,34,0.00,,---,0.00,VWS V14.01,2013-01-18 19:01:00,
2013-01-18 12:06:00,43.7,17.9,30.21,North,0,1.1,1.1,35,0.00,,---,0.00,VWS V14.01,2013-01-18 19:06:00,
2013-01-18 12:11:00,43.2,17.4,30.20,SW,225,2.9,2.9,35,0.00,,---,0.00,VWS V14.01,2013-01-18 19:11:00,
2013-01-18 12:16:00,43.0,17.9,30.20,SW,225,2.5,2.5,36,0.00,,---,0.00,VWS V14.01,2013-01-18 19:16:00,
2013-01-18 12:21:00,43.6,17.8,30.20,SSW,202,2.5,2.5,35,0.00,,---,0.00,VWS V14.01,2013-01-18 19:21:00,
2013-01-18 12:26:00,43.9,17.4,30.19,SSW,202,2.0,2.0,34,0.00,,---,0.00,VWS V14.01,2013-01-18 19:26:00,
2013-01-18 12:31:00,44.6,18.0,30.19,SSW,202,1.6,1.6,34,0.00,,---,0.00,VWS V14.01,2013-01-18 19:31:00,
2013-01-18 12:36:00,45.2,17.8,30.18,SW,225,2.9,2.9,33,0.00,,---,0.00,VWS V14.01,2013-01-18 19:36:00,
2013-01-18 12:41:00,44.6,17.3,30.18,SSE,158,0.7,0.7,33,0.00,,---,0.00,VWS V14.01,2013-01-18 19:41:00,
2013-01-18 12:46:00,45.2,17.8,30.18,West,270,1.3,1.3,33,0.00,,---,0.00,VWS V14.01,2013-01-18 19:46:00,
2013-01-18 12:51:00,45.0,17.6,30.18,SSW,202,1.3,1.3,33,0.00,,---,0.00,VWS V14.01,2013-01-18 19:51:00,
2013-01-18 12:56:00,46.3,18.1,30.18,ESE,112,1.8,1.8,32,0.00,,---,0.00,VWS V14.01,2013-01-18 19:56:00,
2013-01-18 13:01:00,47.0,18.7,30.18,ESE,112,0.4,0.4,32,0.00,,---,0.00,VWS V14.01,2013-01-18 20:01:00,
2013-01-18 13:06:00,47.2,18.1,30.17,NNW,338,1.3,1.3,31,0.00,,---,0.00,VWS V14.01,2013-01-18 20:06:00,
2013-01-18 13:11:00,46.6,17.6,30.17,SW,225,3.6,3.6,31,0.00,,---,0.00,VWS V14.01,2013-01-18 20:11:00,
2013-01-18 13:16:00,46.1,17.2,30.17,SE,135,0.4,0.4,31,0.00,,---,0.00,VWS V14.01,2013-01-18 20:16:00,
2013-01-18 13:21:00,46.3,18.1,30.17,SSW,202,1.1,1.1,32,0.00,,---,0.00,VWS V14.01,2013-01-18 20:21:00,
2013-01-18 13:26:00,47.0,18.0,30.17,SW,225,3.8,3.8,31,0.00,,---,0.00,VWS V14.01,2013-01-18 20:26:00,
2013-01-18 13:31:00,47.2,17.4,30.16,SSW,202,4.7,4.7,30,0.00,,---,0.00,VWS V14.01,2013-01-18 20:31:00,
2013-01-18 13:36:00,47.5,17.6,30.16,SSE,158,2.5,2.5,30,0.00,,---,0.00,VWS V14.01,2013-01-18 20:36:00,
2013-01-18 13:41:00,48.8,18.0,30.16,SSW,202,1.1,1.1,29,0.00,,---,0.00,VWS V14.01,2013-01-18 20:41:00,
2013-01-18 13:46:00,49.1,18.2,30.16,South,180,2.7,2.7,29,0.00,,---,0.00,VWS V14.01,2013-01-18 20:46:00,
2013-01-18 13:51:00,49.3,17.6,30.16,SSW,202,1.8,1.8,28,0.00,,---,0.00,VWS V14.01,2013-01-18 20:51:00,
2013-01-18 13:56:00,47.9,17.2,30.16,SSW,202,3.6,3.6,29,0.00,,---,0.00,VWS V14.01,2013-01-18 20:56:00,
2013-01-18 14:01:00,47.9,17.2,30.15,South,180,1.1,1.1,29,0.00,,---,0.00,VWS V14.01,2013-01-18 21:01:00,
2013-01-18 14:06:00,48.6,17.8,30.15,SSE,158,1.8,1.8,29,0.00,,---,0.01,VWS V14.01,2013-01-18 21:06:00,
2013-01-18 14:11:00,49.3,19.2,30.15,ESE,112,0.0,0.0,30,0.00,,---,0.00,VWS V14.01,2013-01-18 21:11:00,
2013-01-18 14:16:00,49.3,17.6,30.15,SW,225,3.4,3.4,28,0.00,,---,0.00,VWS V14.01,2013-01-18 21:16:00,
2013-01-18 14:21:00,50.0,18.2,30.15,West,270,0.9,0.9,28,0.00,,---,0.00,VWS V14.01,2013-01-18 21:21:00,
2013-01-18 14:26:00,49.9,18.1,30.15,WNW,292,2.2,2.2,28,0.00,,---,0.00,VWS V14.01,2013-01-18 21:26:00,
2013-01-18 14:31:00,49.3,17.6,30.15,WNW,292,0.2,0.2,28,0.00,,---,0.00,VWS V14.01,2013-01-18 21:31:00,
2013-01-18 14:36:00,49.7,17.9,30.15,SSW,202,1.6,1.6,28,0.00,,---,0.00,VWS V14.01,2013-01-18 21:36:00,
2013-01-18 14:41:00,50.6,19.5,30.15,SW,225,0.4,0.4,29,0.00,,---,0.00,VWS V14.01,2013-01-18 21:41:00,
2013-01-18 14:46:00,50.4,17.7,30.15,WSW,248,0.7,0.7,27,0.00,,---,0.00,VWS V14.01,2013-01-18 21:46:00,
2013-01-18 14:51:00,50.0,18.2,30.14,West,270,1.1,1.1,28,0.00,,---,0.00,VWS V14.01,2013-01-18 21:51:00,
2013-01-18 14:56:00,49.7,17.9,30.14,SW,225,0.4,0.4,28,0.00,,---,0.00,VWS V14.01,2013-01-18 21:56:00,
2013-01-18 15:01:00,51.5,19.5,30.14,WSW,248,0.7,0.7,28,0.00,,---,0.00,VWS V14.01,2013-01-18 22:01:00,
2013-01-18 15:06:00,52.4,17.6,30.14,SW,225,1.8,1.8,25,0.00,,---,0.00,VWS V14.01,2013-01-18 22:06:00,
2013-01-18 15:11:00,51.1,18.3,30.14,WNW,292,2.9,2.9,27,0.00,,---,0.00,VWS V14.01,2013-01-18 22:11:00,
2013-01-18 15:16:00,51.7,17.0,30.14,SSW,202,0.7,0.7,25,0.00,,---,0.00,VWS V14.01,2013-01-18 22:16:00,
2013-01-18 15:21:00,52.6,18.7,30.14,WNW,292,0.4,0.4,26,0.00,,---,0.00,VWS V14.01,2013-01-18 22:21:00,
2013-01-18 15:26:00,53.8,17.9,30.14,NNW,338,3.4,3.4,24,0.00,,---,0.00,VWS V14.01,2013-01-18 22:26:00,
2013-01-18 15:31:00,55.1,19.0,30.13,West,270,1.8,1.8,24,0.00,,---,0.00,VWS V14.01,2013-01-18 22:31:00,
2013-01-18 15:36:00,55.3,19.1,30.13,NNE,22,1.6,1.6,24,0.00,,---,0.00,VWS V14.01,2013-01-18 22:36:00,
2013-01-18 15:41:00,54.4,18.4,30.14,NNE,22,1.1,1.1,24,0.00,,---,0.00,VWS V14.01,2013-01-18 22:41:00,
2013-01-18 15:46:00,54.7,17.6,30.14,SW,225,2.5,5.4,23,0.00,,---,0.00,VWS V14.01,2013-01-18 22:46:00,
2013-01-18 15:51:00,54.0,18.0,30.14,SW,225,1.6,3.4,24,0.00,,---,0.00,VWS V14.01,2013-01-18 22:51:00,
2013-01-18 15:56:00,53.8,17.9,30.13,WSW,248,4.3,4.3,24,0.00,,---,0.00,VWS V14.01,2013-01-18 22:56:00,
2013-01-18 16:01:00,53.8,17.9,30.13,WSW,248,2.7,2.7,24,0.00,,---,0.00,VWS V14.01,2013-01-18 23:01:00,
2013-01-18 16:06:00,54.4,18.4,30.13,WNW,292,2.2,2.2,24,0.00,,---,0.00,VWS V14.01,2013-01-18 23:06:00,
2013-01-18 16:11:00,55.1,19.0,30.14,WSW,248,0.4,0.4,24,0.00,,---,0.00,VWS V14.01,2013-01-18 23:11:00,
2013-01-18 16:16:00,56.0,19.7,30.13,SW,225,0.4,0.4,24,0.00,,---,0.00,VWS V14.01,2013-01-18 23:16:00,
2013-01-18 16:21:00,57.2,18.7,30.13,SSW,202,0.9,0.9,22,0.00,,---,0.00,VWS V14.01,2013-01-18 23:21:00,
2013-01-18 16:26:00,55.8,17.5,30.13,SW,225,1.8,1.8,22,0.00,,---,0.00,VWS V14.01,2013-01-18 23:26:00,
2013-01-18 16:31:00,54.7,17.6,30.13,SW,225,1.6,1.6,23,0.00,,---,0.00,VWS V14.01,2013-01-18 23:31:00,
2013-01-18 16:36:00,54.0,18.0,30.13,WSW,248,0.9,0.9,24,0.00,,---,0.00,VWS V14.01,2013-01-18 23:36:00,
2013-01-18 16:41:00,54.0,18.0,30.13,West,270,0.0,0.0,24,0.00,,---,0.00,VWS V14.01,2013-01-18 23:41:00,
2013-01-18 16:46:00,54.4,19.3,30.13,WNW,292,0.0,0.0,25,0.00,,---,0.00,VWS V14.01,2013-01-18 23:46:00,
2013-01-18 16:51:00,54.9,17.8,30.13,SW,225,0.4,0.4,23,0.00,,---,0.00,VWS V14.01,2013-01-18 23:51:00,
2013-01-18 16:56:00,52.9,17.1,30.13,South,180,0.0,0.0,24,0.00,,---,0.00,VWS V14.01,2013-01-18 23:56:00,
2013-01-18 17:01:00,51.8,17.1,30.13,South,180,0.2,0.2,25,0.00,,---,0.00,VWS V14.01,2013-01-19 00:01:00,
2013-01-18 17:06:00,50.8,18.0,30.13,South,180,0.0,0.0,27,0.00,,---,0.00,VWS V14.01,2013-01-19 00:06:00,
2013-01-18 17:11:00,49.7,17.1,30.13,SSE,158,0.7,0.7,27,0.00,,---,0.00,VWS V14.01,2013-01-19 00:11:00,
2013-01-18 17:16:00,48.8,17.2,30.13,SSE,158,0.2,0.2,28,0.00,,---,0.00,VWS V14.01,2013-01-19 00:16:00,
2013-01-18 17:21:00,48.2,17.5,30.13,South,180,0.4,0.4,29,0.00,,---,0.00,VWS V14.01,2013-01-19 00:21:00,
2013-01-18 17:26:00,47.9,17.2,30.13,South,180,0.4,0.4,29,0.00,,---,0.00,VWS V14.01,2013-01-19 00:26:00,
2013-01-18 17:31:00,47.2,17.4,30.14,South,180,0.4,0.4,30,0.00,,---,0.00,VWS V14.01,2013-01-19 00:31:00,
2013-01-18 17:36:00,46.8,17.0,30.13,South,180,0.0,0.0,30,0.00,,---,0.00,VWS V14.01,2013-01-19 00:36:00,
2013-01-18 17:41:00,46.1,16.4,30.13,South,180,0.0,0.0,30,0.00,,---,0.00,VWS V14.01,2013-01-19 00:41:00,
2013-01-18 17:46:00,45.0,16.2,30.13,South,180,0.0,0.0,31,0.00,,---,0.00,VWS V14.01,2013-01-19 00:46:00,
2013-01-18 17:51:00,44.1,16.1,30.13,South,180,0.0,0.0,32,0.00,,---,0.00,VWS V14.01,2013-01-19 00:51:00,
2013-01-18 17:56:00,43.6,16.4,30.13,South,180,0.0,0.0,33,0.00,,---,0.00,VWS V14.01,2013-01-19 00:56:00,
2013-01-18 18:01:00,43.2,15.4,30.13,South,180,0.0,0.0,32,0.00,,---,0.00,VWS V14.01,2013-01-19 01:01:00,
2013-01-18 18:06:00,42.5,14.7,30.13,South,180,0.0,0.0,32,0.00,,---,0.01,VWS V14.01,2013-01-19 01:06:00,
2013-01-18 18:11:00,41.6,14.6,30.14,South,180,0.0,0.0,33,0.00,,---,0.00,VWS V14.01,2013-01-19 01:11:00,
2013-01-18 18:16:00,41.9,15.6,30.14,South,180,0.0,0.0,34,0.00,,---,0.00,VWS V14.01,2013-01-19 01:16:00,
2013-01-18 18:21:00,41.6,16.0,30.14,ESE,112,0.9,0.9,35,0.00,,---,0.00,VWS V14.01,2013-01-19 01:21:00,
2013-01-18 18:26:00,41.4,16.5,30.14,East,90,1.1,1.1,36,0.00,,---,0.00,VWS V14.01,2013-01-19 01:26:00,
2013-01-18 18:31:00,41.8,16.8,30.14,East,90,0.0,0.0,36,0.00,,---,0.00,VWS V14.01,2013-01-19 01:31:00,
2013-01-18 18:36:00,41.9,16.9,30.14,East,90,0.4,0.4,36,0.00,,---,0.00,VWS V14.01,2013-01-19 01:36:00,
2013-01-18 18:42:00,41.6,16.6,30.14,ENE,68,0.7,0.7,36,0.00,,---,0.00,VWS V14.01,2013-01-19 01:42:00,
2013-01-18 18:47:00,41.0,16.7,30.14,ENE,68,0.4,0.4,37,0.00,,---,0.00,VWS V14.01,2013-01-19 01:47:00,
2013-01-18 18:52:00,40.3,16.1,30.14,ENE,68,0.0,0.0,37,0.00,,---,0.00,VWS V14.01,2013-01-19 01:52:00,
2013-01-18 18:57:00,40.0,15.9,30.14,ENE,68,0.4,0.4,37,0.00,,---,0.00,VWS V14.01,2013-01-19 01:57:00,
2013-01-18 19:02:00,39.8,17.5,30.14,ENE,68,0.7,0.7,40,0.00,,---,0.00,VWS V14.01,2013-01-19 02:02:00,
2013-01-18 19:07:00,39.4,15.9,30.15,ENE,68,0.0,0.0,38,0.00,,---,0.00,VWS V14.01,2013-01-19 02:07:00,
2013-01-18 19:12:00,38.9,16.1,30.15,ENE,68,0.4,0.4,39,0.00,,---,0.00,VWS V14.01,2013-01-19 02:12:00,
2013-01-18 19:17:00,38.3,16.1,30.15,ENE,68,0.4,0.4,40,0.00,,---,0.00,VWS V14.01,2013-01-19 02:17:00,
2013-01-18 19:22:00,38.0,15.8,30.15,ENE,68,0.7,0.7,40,0.00,,---,0.00,VWS V14.01,2013-01-19 02:22:00,
2013-01-18 19:27:00,37.8,16.2,30.15,ENE,68,0.0,0.0,41,0.00,,---,0.00,VWS V14.01,2013-01-19 02:27:00,
2013-01-18 19:32:00,37.4,15.9,30.15,ENE,68,0.4,0.4,41,0.00,,---,0.00,VWS V14.01,2013-01-19 02:32:00,
2013-01-18 19:37:00,37.3,16.3,30.15,ENE,68,0.7,0.9,42,0.00,,---,0.00,VWS V14.01,2013-01-19 02:37:00,
2013-01-18 19:42:00,37.1,16.1,30.15,NE,45,0.7,0.7,42,0.00,,---,0.00,VWS V14.01,2013-01-19 02:42:00,
2013-01-18 19:47:00,37.6,17.1,30.15,NE,45,1.1,1.1,43,0.00,,---,0.00,VWS V14.01,2013-01-19 02:47:00,
2013-01-18 19:52:00,37.8,16.2,30.15,NE,45,0.9,0.9,41,0.00,,---,0.00,VWS V14.01,2013-01-19 02:52:00,
2013-01-18 19:57:00,37.4,15.9,30.14,NE,45,0.7,0.7,41,0.00,,---,0.00,VWS V14.01,2013-01-19 02:57:00,
2013-01-18 20:02:00,37.3,16.3,30.14,NE,45,1.1,1.1,42,0.00,,---,0.00,VWS V14.01,2013-01-19 03:02:00,
2013-01-18 20:07:00,37.4,16.4,30.14,NNE,22,2.7,2.7,42,0.00,,---,0.00,VWS V14.01,2013-01-19 03:07:00,
2013-01-18 20:12:00,37.4,16.4,30.14,NNE,22,3.4,3.4,42,0.00,,---,0.00,VWS V14.01,2013-01-19 03:12:00,
2013-01-18 20:17:00,37.8,16.2,30.14,NNE,22,2.9,2.9,41,0.00,,---,0.00,VWS V14.01,2013-01-19 03:17:00,
2013-01-18 20:22:00,37.8,16.2,30.15,NNE,22,1.3,1.3,41,0.00,,---,0.00,VWS V14.01,2013-01-19 03:22:00,
2013-01-18 20:27:00,37.8,16.2,30.15,NNE,22,0.0,0.2,41,0.00,,---,0.00,VWS V14.01,2013-01-19 03:27:00,
2013-01-18 20:32:00,37.3,15.8,30.15,NNE,22,0.0,0.0,41,0.00,,---,0.00,VWS V14.01,2013-01-19 03:32:00,
2013-01-18 20:37:00,36.9,16.0,30.15,North,0,0.4,0.4,42,0.00,,---,0.00,VWS V14.01,2013-01-19 03:37:00,
2013-01-18 20:42:00,36.7,15.8,30.15,North,0,1.3,1.3,42,0.00,,---,0.00,VWS V14.01,2013-01-19 03:42:00,
2013-01-18 20:47:00,36.9,16.0,30.15,NNE,22,0.7,0.7,42,0.00,,---,0.00,VWS V14.01,2013-01-19 03:47:00,
2013-01-18 20:52:00,36.5,15.6,30.15,North,0,0.0,0.0,42,0.00,,---,0.00,VWS V14.01,2013-01-19 03:52:00,
2013-01-18 20:57:00,36.4,16.0,30.15,NNE,22,0.0,0.0,43,0.00,,---,0.00,VWS V14.01,2013-01-19 03:57:00,
2013-01-18 21:02:00,36.0,14.6,30.15,North,0,0.0,0.0,41,0.00,,---,0.00,VWS V14.01,2013-01-19 04:02:00,
2013-01-18 21:07:00,35.3,14.5,30.15,North,0,0.0,0.0,42,0.00,,---,0.00,VWS V14.01,2013-01-19 04:07:00,
2013-01-18 21:12:00,34.9,15.2,30.15,ESE,112,0.7,0.7,44,0.00,,---,0.00,VWS V14.01,2013-01-19 04:12:00,
2013-01-18 21:17:00,34.6,14.9,30.15,ESE,112,0.0,0.0,44,0.00,,---,0.00,VWS V14.01,2013-01-19 04:17:00,
2013-01-18 21:22:00,33.8,13.7,30.15,ESE,112,0.0,0.0,43,0.00,,---,0.00,VWS V14.01,2013-01-19 04:22:00,
2013-01-18 21:27:00,33.5,13.9,30.15,ESE,112,0.0,0.0,44,0.00,,---,0.00,VWS V14.01,2013-01-19 04:27:00,
2013-01-18 21:32:00,33.1,14.6,30.15,ESE,112,0.0,0.0,46,0.00,,---,0.00,VWS V14.01,2013-01-19 04:32:00,
2013-01-18 21:37:00,32.9,14.9,30.15,ESE,112,0.0,0.0,47,0.00,,---,0.00,VWS V14.01,2013-01-19 04:37:00,
2013-01-18 21:42:00,33.1,15.1,30.15,NNE,22,1.1,1.1,47,0.00,,---,0.00,VWS V14.01,2013-01-19 04:42:00,
2013-01-18 21:47:00,33.7,15.6,30.15,North,0,0.7,0.7,47,0.00,,---,0.00,VWS V14.01,2013-01-19 04:47:00,
2013-01-18 21:52:00,34.2,15.6,30.15,NW,315,1.6,1.6,46,0.00,,---,0.00,VWS V14.01,2013-01-19 04:52:00,
2013-01-18 21:57:00,34.6,16.0,30.15,NNW,338,0.4,0.4,46,0.00,,---,0.00,VWS V14.01,2013-01-19 04:57:00,
2013-01-18 22:01:00,34.7,16.0,30.15,North,0,1.1,1.1,46,0.00,,---,0.00,VWS V14.01,2013-01-19 05:01:00,
2013-01-18 22:02:00,34.7,16.0,30.15,North,0,1.1,1.1,46,0.00,,---,0.00,VWS V14.01,2013-01-19 05:02:00,
2013-01-18 22:07:00,34.9,16.2,30.15,North,0,0.4,0.4,46,0.00,,---,0.00,VWS V14.01,2013-01-19 05:07:00,
2013-01-18 22:12:00,34.7,16.0,30.15,North,0,0.4,0.4,46,0.00,,---,0.00,VWS V14.01,2013-01-19 05:12:00,
2013-01-18 22:17:00,34.7,16.0,30.15,North,0,2.2,2.2,46,0.00,,---,0.00,VWS V14.01,2013-01-19 05:17:00,
2013-01-18 22:22:00,34.4,15.8,30.15,North,0,0.0,0.0,46,0.00,,---,0.00,VWS V14.01,2013-01-19 05:22:00,
2013-01-18 22:27:00,33.8,15.2,30.15,NW,315,0.4,0.4,46,0.00,,---,0.00,VWS V14.01,2013-01-19 05:27:00,
2013-01-18 22:32:00,33.5,14.9,30.15,WNW,292,0.0,0.0,46,0.00,,---,0.00,VWS V14.01,2013-01-19 05:32:00,
2013-01-18 22:37:00,33.1,15.6,30.15,NNW,338,0.2,0.2,48,0.00,,---,0.00,VWS V14.01,2013-01-19 05:37:00,
2013-01-18 22:42:00,32.9,16.3,30.15,NNW,338,0.0,0.0,50,0.00,,---,0.00,VWS V14.01,2013-01-19 05:42:00,
2013-01-18 22:47:00,32.8,15.8,30.15,NNW,338,0.0,0.0,49,0.00,,---,0.00,VWS V14.01,2013-01-19 05:47:00,
2013-01-18 22:52:00,32.0,14.6,30.15,NNW,338,0.0,0.0,48,0.00,,---,0.00,VWS V14.01,2013-01-19 05:52:00,
2013-01-18 22:57:00,31.3,14.4,30.15,NNW,338,0.0,0.0,49,0.00,,---,0.00,VWS V14.01,2013-01-19 05:57:00,
2013-01-18 23:02:00,31.3,15.7,30.15,North,0,0.0,0.0,52,0.00,,---,0.00,VWS V14.01,2013-01-19 06:02:00,
2013-01-18 23:07:00,31.5,15.9,30.15,NE,45,0.0,0.0,52,0.00,,---,0.00,VWS V14.01,2013-01-19 06:07:00,
2013-01-18 23:12:00,31.3,15.7,30.15,East,90,0.0,0.0,52,0.00,,---,0.00,VWS V14.01,2013-01-19 06:12:00,
2013-01-18 23:17:00,31.1,15.5,30.15,East,90,0.2,0.2,52,0.00,,---,0.00,VWS V14.01,2013-01-19 06:17:00,
2013-01-18 23:22:00,30.8,15.3,30.15,East,90,0.0,0.0,52,0.00,,---,0.00,VWS V14.01,2013-01-19 06:22:00,
2013-01-18 23:27:00,30.2,14.7,30.15,East,90,0.0,0.0,52,0.00,,---,0.00,VWS V14.01,2013-01-19 06:27:00,
2013-01-18 23:32:00,30.2,15.6,30.15,ENE,68,0.2,0.2,54,0.00,,---,0.00,VWS V14.01,2013-01-19 06:32:00,
2013-01-18 23:36:00,30.1,14.6,30.15,East,90,0.0,0.0,52,0.00,,---,0.00,VWS V14.01,2013-01-19 06:36:00,
2013-01-18 23:41:00,29.5,14.1,30.15,East,90,0.0,0.0,52,0.00,,---,0.00,VWS V14.01,2013-01-19 06:41:00,
2013-01-18 23:46:00,29.9,14.9,30.15,ENE,68,1.1,1.1,53,0.00,,---,0.00,VWS V14.01,2013-01-19 06:46:00,
2013-01-18 23:52:00,30.1,15.1,30.15,ENE,68,0.7,0.7,53,0.00,,---,0.00,VWS V14.01,2013-01-19 06:52:00,
2013-01-18 23:57:00,30.2,14.7,30.15,ENE,68,1.1,1.1,52,0.00,,---,0.00,VWS V14.01,2013-01-19 06:57:00,